createdAt,value
2023-01-17T00:00:07.323Z,1.50
2023-01-17T00:05:29.413Z,1.73
2023-01-17T00:10:32.318Z,1.70
2023-01-17T00:15:35.363Z,1.40
2023-01-17T00:20:57.256Z,2.28
2023-01-17T00:26:05.979Z,1.63
2023-01-17T00:31:10.745Z,2.45
2023-01-17T00:36:14.119Z,2.00
2023-01-17T00:41:16.794Z,1.83
2023-01-17T00:46:38.877Z,1.73
2023-01-17T00:52:00.004Z,1.42
2023-01-17T00:57:21.167Z,2.00
2023-01-17T01:02:42.902Z,1.80
2023-01-17T01:08:04.347Z,1.80
2023-01-17T01:13:25.788Z,2.28
2023-01-17T01:18:47.645Z,1.90
2023-01-17T01:24:09.072Z,1.92
2023-01-17T01:29:30.348Z,1.95
2023-01-17T01:34:33.265Z,2.15
2023-01-17T01:39:36.223Z,2.25
2023-01-17T01:44:59.209Z,2.60
2023-01-17T01:50:06.077Z,3.40
2023-01-17T01:55:18.809Z,1.80
2023-01-17T02:00:30.070Z,2.47
2023-01-17T02:05:34.490Z,2.47
2023-01-17T02:10:39.867Z,2.42
2023-01-17T02:20:59.407Z,2.38
2023-01-17T02:26:40.143Z,1.83
2023-01-17T02:31:51.889Z,2.58
2023-01-17T02:37:11.996Z,2.50
2023-01-17T02:42:20.984Z,2.10
2023-01-17T02:47:29.518Z,3.00
2023-01-17T02:52:56.456Z,2.22
2023-01-17T02:58:13.472Z,2.22
2023-01-17T03:03:28.499Z,1.98
2023-01-17T03:08:31.886Z,1.98
2023-01-17T03:13:34.677Z,2.22
2023-01-17T03:18:37.501Z,2.28
2023-01-17T03:23:40.378Z,2.00
2023-01-17T03:28:43.469Z,2.22
2023-01-17T03:33:46.933Z,3.13
2023-01-17T03:38:49.735Z,2.30
2023-01-17T03:43:52.518Z,3.22
2023-01-17T03:48:55.817Z,2.28
2023-01-17T03:53:58.537Z,2.22
2023-01-17T03:59:01.336Z,2.33
2023-01-17T04:04:04.181Z,2.33
2023-01-17T04:09:07.023Z,1.75
2023-01-17T04:14:09.794Z,2.03
2023-01-17T04:19:13.987Z,2.95
2023-01-17T04:24:18.004Z,1.83
2023-01-17T04:29:21.401Z,2.00
2023-01-17T04:34:24.624Z,2.13
2023-01-17T04:39:27.740Z,2.15
2023-01-17T04:44:30.826Z,2.20
2023-01-17T04:49:33.762Z,2.22
2023-01-17T04:54:36.675Z,2.67
2023-01-17T04:59:39.284Z,2.85
2023-01-17T05:04:42.097Z,2.15
2023-01-17T05:09:44.852Z,2.70
2023-01-17T05:14:47.708Z,2.25
2023-01-17T05:19:52.034Z,1.98
2023-01-17T05:24:54.843Z,2.45
2023-01-17T05:29:58.297Z,1.95
2023-01-17T05:35:02.966Z,2.15
2023-01-17T05:40:10.311Z,1.88
2023-01-17T05:45:17.023Z,2.28
2023-01-17T05:50:56.515Z,2.60
2023-01-17T05:56:21.299Z,2.70
2023-01-17T06:01:42.303Z,2.00
2023-01-17T06:06:45.178Z,2.25
2023-01-17T06:11:48.026Z,2.67
2023-01-17T06:16:50.896Z,2.67
2023-01-17T06:22:00.911Z,2.17
2023-01-17T06:27:04.797Z,3.13
2023-01-17T06:32:17.766Z,2.38
2023-01-17T06:37:20.424Z,2.28
2023-01-17T06:42:23.513Z,1.90
2023-01-17T06:47:26.418Z,2.25
2023-01-17T06:52:29.495Z,2.10
2023-01-17T06:57:32.355Z,2.03
2023-01-17T07:02:35.315Z,1.77
2023-01-17T07:07:38.144Z,2.35
2023-01-17T07:12:41.324Z,2.35
2023-01-17T07:18:14.241Z,2.25
2023-01-17T07:23:40.597Z,2.38
2023-01-17T07:28:43.508Z,3.17
2023-01-17T07:33:46.507Z,2.42
2023-01-17T07:39:21.759Z,2.60
2023-01-17T07:44:25.305Z,1.92
2023-01-17T07:50:02.164Z,2.60
2023-01-17T07:55:06.122Z,2.28
2023-01-17T08:00:09.687Z,2.13
2023-01-17T08:05:16.157Z,3.03
2023-01-17T08:10:19.629Z,3.08
2023-01-17T08:15:23.974Z,2.70
2023-01-17T08:20:28.145Z,2.65
2023-01-17T08:25:33.570Z,3.03
2023-01-17T08:30:36.616Z,2.55
2023-01-17T08:35:39.375Z,2.75
2023-01-17T08:41:46.615Z,2.35
2023-01-17T08:46:50.129Z,2.50
2023-01-17T09:00:01.573Z,2.60
2023-01-17T09:05:08.485Z,2.85
2023-01-17T09:10:14.072Z,2.58
2023-01-17T09:15:20.510Z,2.30
2023-01-17T09:20:24.479Z,2.75
2023-01-17T09:25:27.774Z,2.22
2023-01-17T09:30:30.645Z,2.15
2023-01-17T09:35:38.689Z,2.17
2023-01-17T09:40:47.928Z,1.70
2023-01-17T09:45:51.118Z,2.25
2023-01-17T09:51:00.837Z,2.28
2023-01-17T09:56:14.538Z,2.30
2023-01-17T10:01:27.567Z,2.50
2023-01-17T10:06:54.287Z,2.42
2023-01-17T10:12:39.163Z,2.33
2023-01-17T10:18:03.421Z,2.10
2023-01-17T10:23:18.455Z,1.70
2023-01-17T10:28:25.599Z,2.30
2023-01-17T10:33:36.455Z,1.83
2023-01-17T10:38:42.203Z,1.67
2023-01-17T10:43:55.526Z,1.90
2023-01-17T10:48:58.846Z,1.92
2023-01-17T10:54:04.815Z,2.08
2023-01-17T10:59:33.820Z,2.20
2023-01-17T11:04:40.614Z,1.95
2023-01-17T11:09:50.028Z,1.52
2023-01-17T11:15:04.945Z,1.70
2023-01-17T11:20:35.646Z,2.05
2023-01-17T11:25:39.428Z,1.52
2023-01-17T11:30:56.499Z,1.67
2023-01-17T11:35:59.486Z,2.70
2023-01-17T11:41:21.900Z,2.15
2023-01-17T11:46:25.631Z,1.80
2023-01-17T11:51:39.523Z,1.73
2023-01-17T11:56:46.476Z,2.22
2023-01-17T12:02:06.437Z,1.92
2023-01-17T12:07:38.525Z,2.00
2023-01-17T12:13:05.778Z,1.80
2023-01-17T12:18:45.894Z,2.33
2023-01-17T12:24:01.015Z,2.30
2023-01-17T12:29:28.050Z,2.05
2023-01-17T12:34:39.174Z,2.10
2023-01-17T12:39:49.608Z,2.75
2023-01-17T12:45:38.804Z,2.00
2023-01-17T12:50:51.401Z,2.33
2023-01-17T12:56:23.618Z,2.00
2023-01-17T13:01:40.028Z,2.45
2023-01-17T13:07:05.885Z,1.95
2023-01-17T13:12:15.500Z,2.15
2023-01-17T13:17:47.242Z,2.30
2023-01-17T13:22:52.366Z,3.95
2023-01-17T13:28:07.204Z,3.80
2023-01-17T13:33:37.562Z,2.70
2023-01-17T13:39:00.828Z,1.95
2023-01-17T13:44:23.228Z,2.75
2023-01-17T13:49:43.495Z,2.00
2023-01-17T13:54:52.884Z,2.70
2023-01-17T13:59:57.908Z,2.20
2023-01-17T14:05:18.827Z,2.65
2023-01-17T14:10:36.166Z,2.42
2023-01-17T14:15:50.163Z,2.72
2023-01-17T14:21:08.059Z,2.55
2023-01-17T14:26:22.733Z,2.83
2023-01-17T14:31:26.871Z,2.40
2023-01-17T14:36:33.515Z,2.78
2023-01-17T14:41:36.468Z,2.53
2023-01-17T14:46:39.363Z,2.72
2023-01-17T14:51:42.443Z,3.15
2023-01-17T14:56:48.435Z,2.83
2023-01-17T15:02:07.734Z,2.85
2023-01-17T15:07:19.083Z,1.85
2023-01-17T15:12:22.023Z,1.80
2023-01-17T15:17:25.225Z,2.13
2023-01-17T15:22:30.032Z,2.67
2023-01-17T15:27:33.183Z,2.20
2023-01-17T15:32:38.168Z,2.00
2023-01-17T15:37:42.004Z,2.40
2023-01-17T15:43:05.409Z,1.40
2023-01-17T15:48:26.591Z,1.95
2023-01-17T15:53:37.953Z,2.03
2023-01-17T15:58:40.862Z,2.38
2023-01-17T16:03:55.526Z,1.92
2023-01-17T16:08:58.560Z,1.45
2023-01-17T16:14:01.743Z,1.45
2023-01-17T16:19:05.691Z,1.45
2023-01-17T16:24:11.346Z,2.22
2023-01-17T16:29:14.225Z,1.10
2023-01-17T16:34:17.029Z,2.47
2023-01-17T16:39:19.898Z,1.45
2023-01-17T16:44:22.956Z,1.60
2023-01-17T16:49:25.819Z,1.58
2023-01-17T16:54:28.690Z,1.10
2023-01-17T16:59:45.930Z,1.63
2023-01-17T17:04:52.816Z,1.58
2023-01-17T17:09:55.746Z,1.85
2023-01-17T17:14:58.476Z,1.50
2023-01-17T17:20:01.204Z,1.25
2023-01-17T17:25:08.132Z,1.17
2023-01-17T17:30:11.842Z,1.80
2023-01-17T17:35:14.978Z,2.25
2023-01-17T17:40:18.194Z,1.38
2023-01-17T17:45:21.210Z,1.70
2023-01-17T17:50:24.130Z,1.50
2023-01-17T17:55:27.326Z,1.10
2023-01-17T18:00:30.062Z,1.33
2023-01-17T18:05:33.012Z,1.63
2023-01-17T18:10:35.990Z,1.42
2023-01-17T18:15:38.714Z,1.25
2023-01-17T18:20:41.717Z,1.30
2023-01-17T18:25:44.887Z,1.25
2023-01-17T18:30:47.745Z,1.48
2023-01-17T18:35:54.959Z,1.10
2023-01-17T18:41:03.285Z,1.13
2023-01-17T18:46:07.311Z,1.85
2023-01-17T18:51:15.730Z,1.75
2023-01-17T18:56:20.774Z,1.35
2023-01-17T19:01:26.194Z,1.50
2023-01-17T19:06:34.743Z,1.08
2023-01-17T19:11:37.673Z,1.23
2023-01-17T19:16:41.886Z,1.10
2023-01-17T19:21:45.280Z,1.40
2023-01-17T19:26:53.162Z,1.30
2023-01-17T19:31:56.066Z,1.75
2023-01-17T19:36:59.166Z,1.42
2023-01-17T19:42:02.132Z,1.35
2023-01-17T19:47:05.012Z,1.80
2023-01-17T19:52:07.877Z,1.70
2023-01-17T19:57:10.751Z,1.77
2023-01-17T20:02:13.637Z,1.73
2023-01-17T20:07:16.734Z,2.00
2023-01-17T20:12:19.849Z,1.77
2023-01-17T20:17:22.756Z,2.67
2023-01-17T20:22:25.626Z,2.15
2023-01-17T20:27:28.794Z,3.65
2023-01-17T20:32:31.684Z,2.88
2023-01-17T20:37:34.501Z,3.88
2023-01-17T20:42:37.413Z,4.05
2023-01-17T20:47:41.644Z,3.28
2023-01-17T20:52:45.080Z,4.30
2023-01-17T20:57:48.108Z,4.47
2023-01-17T21:02:51.061Z,3.95
2023-01-17T21:07:54.210Z,4.18
2023-01-17T21:12:57.342Z,4.05
2023-01-17T21:18:00.539Z,3.80
2023-01-17T21:23:03.240Z,4.65
2023-01-17T21:28:06.584Z,4.78
2023-01-17T21:33:09.603Z,5.95
2023-01-17T21:38:14.130Z,5.47
2023-01-17T21:43:17.078Z,6.55
2023-01-17T21:48:20.128Z,6.68
2023-01-17T21:53:22.973Z,6.55
2023-01-17T21:58:43.850Z,6.60
2023-01-17T22:03:51.664Z,7.50
2023-01-17T22:08:55.157Z,8.85
2023-01-17T22:13:59.299Z,8.98
2023-01-17T22:19:02.258Z,9.25
2023-01-17T22:24:05.735Z,9.95
2023-01-17T22:29:11.384Z,10.73
2023-01-17T22:34:15.745Z,10.35
2023-01-17T22:39:18.630Z,11.05
2023-01-17T22:44:21.609Z,12.02
2023-01-17T22:49:24.858Z,11.35
2023-01-17T22:54:27.660Z,8.20
2023-01-17T22:59:30.554Z,10.07
2023-01-17T23:04:33.404Z,9.10
2023-01-17T23:09:36.298Z,10.20
2023-01-17T23:14:57.388Z,9.88
2023-01-17T23:20:00.149Z,11.73
2023-01-17T23:25:08.963Z,12.55
2023-01-17T23:30:14.590Z,10.55
2023-01-17T23:35:19.282Z,10.65
2023-01-17T23:40:22.349Z,10.73
2023-01-17T23:45:25.412Z,10.15
2023-01-17T23:50:28.411Z,11.10
2023-01-17T23:55:31.255Z,10.60
